Time;durP1;ratioP1;P1;durP2;ratioP2;P2;SDS_P1;SDS_P2;PMS_P1;PMS_P2;Temp;Humidity;BMP_temperature;BMP_pressure;BME280_temperature;BME280_humidity;BME280_pressure;Samples;Min_cycle;Max_cycle;Signal;HPM_P1;HPM_P2
2022/07/28 00:00:23;;;;;;;9.00;2.43;;;18.30;99.90;;;;;;5011315;28;20645;-76
2022/07/28 00:02:49;;;;;;;6.30;2.03;;;18.10;99.90;;;;;;5011177;28;20227;-75
2022/07/28 00:05:15;;;;;;;5.73;2.00;;;18.10;99.90;;;;;;5011173;28;20200;-76
2022/07/28 00:07:40;;;;;;;4.70;2.10;;;18.20;99.90;;;;;;5011236;28;20547;-76
2022/07/28 00:10:07;;;;;;;9.97;2.10;;;18.30;99.90;;;;;;4993601;28;20191;-77
2022/07/28 00:12:33;;;;;;;9.23;1.87;;;18.30;99.90;;;;;;4993297;28;20285;-77
2022/07/28 00:14:58;;;;;;;6.60;2.27;;;18.30;99.90;;;;;;4993444;28;20521;-78
2022/07/28 00:17:24;;;;;;;5.20;1.70;;;18.20;99.90;;;;;;4977011;28;20470;-77
2022/07/28 00:19:50;;;;;;;2.23;1.60;;;18.10;99.90;;;;;;4993408;28;20181;-77
2022/07/28 00:22:16;;;;;;;4.20;2.03;;;18.20;99.90;;;;;;5011042;28;20220;-77
2022/07/28 00:24:42;;;;;;;5.93;2.30;;;18.30;99.90;;;;;;4993121;28;20673;-78
2022/07/28 00:27:08;;;;;;;2.80;1.90;;;18.40;99.90;;;;;;4992961;28;20510;-78
2022/07/28 00:29:34;;;;;;;3.83;2.10;;;18.50;99.90;;;;;;4993329;28;20214;-77
2022/07/28 00:31:59;;;;;;;2.20;1.50;;;18.50;99.90;;;;;;5010780;28;20176;-77
2022/07/28 00:34:25;;;;;;;4.13;1.97;;;18.60;99.90;;;;;;4976835;28;20420;-77
2022/07/28 00:36:51;;;;;;;5.63;2.53;;;18.70;99.90;;;;;;4993016;28;20729;-77
2022/07/28 00:39:16;;;;;;;5.20;2.10;;;18.70;99.90;;;;;;4992733;28;20637;-77
2022/07/28 00:41:42;;;;;;;8.93;1.90;;;18.70;99.90;;;;;;5010480;28;20262;-78
2022/07/28 00:44:08;;;;;;;6.50;2.23;;;18.80;99.90;;;;;;5010459;28;20650;-77
2022/07/28 00:46:34;;;;;;;3.67;2.07;;;18.80;99.90;;;;;;5010472;28;20197;-77
2022/07/28 00:49:00;;;;;;;6.10;2.10;;;18.80;99.90;;;;;;4992813;28;20237;-77
2022/07/28 00:51:26;;;;;;;6.50;2.67;;;18.80;99.90;;;;;;5010290;28;20296;-77
2022/07/28 00:53:53;;;;;;;2.30;2.03;;;18.90;99.90;;;;;;4992473;28;20455;-77
2022/07/28 00:56:20;;;;;;;4.53;2.13;;;19.00;99.90;;;;;;4992554;28;20831;-77
2022/07/28 00:58:46;;;;;;;6.43;2.50;;;18.90;99.90;;;;;;4992479;28;20455;-78
2022/07/28 01:01:16;;;;;;;3.60;2.17;;;19.00;99.90;;;;;;4992251;28;20801;-78
2022/07/28 01:03:45;;;;;;;2.37;1.97;;;18.90;99.90;;;;;;5010139;28;21014;-78
2022/07/28 01:06:32;;;;;;;5.10;2.53;;;18.90;99.90;;;;;;4992341;28;20435;-77
2022/07/28 01:09:35;;;;;;;2.40;1.90;;;18.90;99.90;;;;;;4992023;28;20448;-78
2022/07/28 01:12:39;;;;;;;2.43;2.23;;;18.90;99.90;;;;;;4992045;28;20427;-77
2022/07/28 01:15:11;;;;;;;6.87;2.07;;;18.90;99.90;;;;;;5006504;28;20471;-77
2022/07/28 01:18:12;;;;;;;2.40;2.20;;;18.90;99.90;;;;;;5009722;28;20945;-77
2022/07/28 01:20:44;;;;;;;3.00;2.37;;;18.90;99.90;;;;;;4999550;28;20928;-77
2022/07/28 01:23:31;;;;;;;8.73;3.07;;;18.80;99.90;;;;;;5009374;28;20948;-77
2022/07/28 01:26:15;;;;;;;3.37;2.47;;;18.70;99.90;;;;;;4991936;28;20494;-78
2022/07/28 01:29:17;;;;;;;5.90;2.50;;;18.70;99.90;;;;;;5009538;28;20446;-78
2022/07/28 01:31:52;;;;;;;2.73;2.43;;;18.70;99.90;;;;;;5009768;28;20832;-78
2022/07/28 01:34:26;;;;;;;2.80;2.30;;;18.70;99.90;;;;;;4993132;28;20408;-78
2022/07/28 01:36:57;;;;;;;2.60;2.40;;;18.60;99.90;;;;;;5009427;28;20455;-78
2022/07/28 01:39:27;;;;;;;3.30;2.60;;;18.60;99.90;;;;;;5009315;28;20494;-77
2022/07/28 01:41:57;;;;;;;6.30;2.83;;;18.40;99.90;;;;;;5009380;28;20798;-77
2022/07/28 01:44:25;;;;;;;3.47;2.67;;;18.40;99.90;;;;;;5009264;28;20457;-75
2022/07/28 01:46:52;;;;;;;7.23;2.67;;;18.30;99.90;;;;;;4975593;28;20438;-76
2022/07/28 01:49:20;;;;;;;3.00;2.50;;;18.20;99.90;;;;;;5009099;28;20948;-76
2022/07/28 01:51:47;;;;;;;4.90;2.63;;;18.10;99.90;;;;;;4991787;28;20485;-76
2022/07/28 01:54:14;;;;;;;3.47;3.00;;;18.00;99.90;;;;;;4991266;28;20757;-77
2022/07/28 01:56:41;;;;;;;4.50;2.80;;;18.00;99.90;;;;;;5009184;28;20557;-77
2022/07/28 01:59:10;;;;;;;2.90;2.60;;;17.90;99.90;;;;;;5009231;28;20439;-75
2022/07/28 02:01:41;;;;;;;5.57;3.03;;;17.90;99.90;;;;;;4976513;28;20435;-75
2022/07/28 02:04:09;;;;;;;3.57;2.87;;;17.80;99.90;;;;;;5008846;28;20445;-75
2022/07/28 02:06:38;;;;;;;3.90;2.93;;;17.70;99.90;;;;;;5009439;28;20424;-74
2022/07/28 02:09:05;;;;;;;3.20;2.40;;;17.70;99.90;;;;;;4990993;28;20455;-75
2022/07/28 02:11:38;;;;;;;4.07;3.00;;;17.70;99.90;;;;;;4991335;28;20611;-75
2022/07/28 02:14:17;;;;;;;5.03;2.90;;;17.60;99.90;;;;;;4992170;28;20418;-75
2022/07/28 02:17:09;;;;;;;3.53;2.90;;;17.50;99.90;;;;;;4991240;28;21003;-75
2022/07/28 02:19:36;;;;;;;5.03;2.80;;;17.50;99.90;;;;;;5009059;28;20602;-76
2022/07/28 02:22:03;;;;;;;3.53;2.90;;;17.40;99.90;;;;;;5012756;28;20410;-76
2022/07/28 02:24:31;;;;;;;3.73;3.40;;;17.30;99.90;;;;;;5013403;28;20416;-76
2022/07/28 02:27:09;;;;;;;4.00;3.17;;;17.20;99.90;;;;;;5011636;28;20510;-76
2022/07/28 02:29:43;;;;;;;6.43;3.40;;;17.10;99.90;;;;;;5008989;28;20483;-76
2022/07/28 02:32:36;;;;;;;5.37;3.33;;;16.90;99.90;;;;;;5009489;28;20620;-76
2022/07/28 02:35:09;;;;;;;6.77;3.30;;;16.70;99.90;;;;;;4992860;28;20940;-76
2022/07/28 02:37:38;;;;;;;4.00;3.30;;;16.80;99.90;;;;;;5013168;28;20827;-76
2022/07/28 02:40:07;;;;;;;5.17;3.60;;;16.80;99.90;;;;;;4995415;28;20427;-76
2022/07/28 02:42:35;;;;;;;12.53;3.83;;;16.80;99.90;;;;;;5013711;28;20415;-75
2022/07/28 02:45:06;;;;;;;4.60;3.40;;;16.70;99.90;;;;;;5013547;28;20425;-78
2022/07/28 02:47:39;;;;;;;10.80;3.50;;;16.70;99.90;;;;;;4996122;28;20449;-78
2022/07/28 02:50:06;;;;;;;5.43;3.43;;;16.60;99.90;;;;;;4996653;28;20430;-79
2022/07/28 02:52:32;;;;;;;10.40;3.50;;;16.60;99.90;;;;;;4995659;28;20423;-78
2022/07/28 02:54:59;;;;;;;3.17;2.87;;;16.30;99.90;;;;;;4994903;28;20432;-76
2022/07/28 02:57:26;;;;;;;9.50;3.80;;;16.30;99.90;;;;;;5012725;28;20430;-77
2022/07/28 02:59:53;;;;;;;7.47;3.60;;;16.30;99.90;;;;;;4994482;28;20433;-77
2022/07/28 03:02:20;;;;;;;7.00;3.50;;;16.30;99.90;;;;;;4994758;28;20878;-77
2022/07/28 03:05:00;;;;;;;5.50;3.30;;;16.30;99.90;;;;;;5012804;28;20424;-78
2022/07/28 03:07:31;;;;;;;5.83;3.53;;;16.30;99.90;;;;;;5012462;28;20413;-76
2022/07/28 03:09:57;;;;;;;6.67;2.90;;;16.20;99.90;;;;;;4994476;28;20429;-77
2022/07/28 03:12:23;;;;;;;5.77;4.03;;;16.10;99.90;;;;;;5012284;28;20494;-78
2022/07/28 03:14:49;;;;;;;8.00;5.03;;;16.10;99.90;;;;;;5012286;28;20920;-77
2022/07/28 03:17:15;;;;;;;6.23;3.60;;;16.00;99.90;;;;;;5012085;28;20446;-76
2022/07/28 03:19:41;;;;;;;5.03;3.90;;;15.70;99.90;;;;;;5012107;28;20172;-74
2022/07/28 03:22:07;;;;;;;8.87;3.90;;;15.40;99.90;;;;;;5012494;28;20415;-75
2022/07/28 03:24:38;;;;;;;12.13;4.10;;;15.50;99.90;;;;;;5012048;28;20484;-74
2022/07/28 03:27:24;;;;;;;4.07;3.70;;;15.60;99.90;;;;;;5012079;28;20180;-73
2022/07/28 03:30:02;;;;;;;4.47;4.00;;;15.60;99.90;;;;;;5011950;28;20939;-74
2022/07/28 03:32:30;;;;;;;4.83;4.20;;;15.60;99.90;;;;;;4994045;28;20422;-75
2022/07/28 03:34:57;;;;;;;8.57;4.13;;;15.70;99.90;;;;;;4994080;28;20937;-74
2022/07/28 03:37:37;;;;;;;5.13;3.77;;;15.60;99.90;;;;;;4978797;28;20429;-75
2022/07/28 03:40:07;;;;;;;12.43;4.50;;;15.60;99.90;;;;;;4995326;28;20868;-74
2022/07/28 03:42:34;;;;;;;4.90;4.10;;;15.60;99.90;;;;;;5013109;28;20405;-74
2022/07/28 03:45:00;;;;;;;7.30;3.70;;;15.60;99.90;;;;;;5012868;28;20423;-74
2022/07/28 03:47:26;;;;;;;4.63;3.80;;;15.60;99.90;;;;;;5013312;28;20735;-74
2022/07/28 03:49:52;;;;;;;10.27;3.73;;;15.60;99.90;;;;;;4996419;28;20420;-74
2022/07/28 03:52:18;;;;;;;6.03;4.20;;;15.60;99.90;;;;;;5014719;28;20252;-74
2022/07/28 03:54:44;;;;;;;4.07;3.67;;;15.60;99.90;;;;;;5013911;28;20414;-74
2022/07/28 03:57:10;;;;;;;6.90;3.47;;;15.60;99.90;;;;;;4979933;28;20535;-74
2022/07/28 03:59:36;;;;;;;4.77;3.77;;;15.50;99.90;;;;;;4979452;28;20446;-74
2022/07/28 04:02:02;;;;;;;7.13;4.43;;;15.50;99.90;;;;;;5012964;28;20532;-74
2022/07/28 04:04:28;;;;;;;6.83;4.83;;;15.50;99.90;;;;;;4993896;28;20203;-78
2022/07/28 04:06:54;;;;;;;11.90;5.67;;;15.50;99.90;;;;;;5012339;28;20477;-75
2022/07/28 04:09:20;;;;;;;6.40;4.20;;;15.40;99.90;;;;;;4994311;28;20656;-74
2022/07/28 04:11:45;;;;;;;5.33;3.70;;;15.40;99.90;;;;;;4994356;28;20431;-75
2022/07/28 04:14:11;;;;;;;4.30;3.90;;;15.40;99.90;;;;;;5011912;28;20187;-74
2022/07/28 04:16:37;;;;;;;7.10;4.10;;;15.40;99.90;;;;;;4977656;28;20222;-75
2022/07/28 04:19:03;;;;;;;4.50;3.50;;;15.40;99.90;;;;;;5011612;28;20443;-75
2022/07/28 04:21:28;;;;;;;6.60;3.80;;;15.40;99.90;;;;;;4994398;28;20738;-75
2022/07/28 04:23:54;;;;;;;10.90;4.20;;;15.50;99.90;;;;;;4977668;28;20233;-73
2022/07/28 04:26:20;;;;;;;4.30;3.40;;;15.50;99.90;;;;;;5012055;28;20190;-75
2022/07/28 04:28:46;;;;;;;5.10;4.17;;;15.50;99.90;;;;;;4993539;28;20209;-75
2022/07/28 04:31:12;;;;;;;9.00;3.97;;;15.50;99.90;;;;;;4977156;28;20470;-75
2022/07/28 04:33:38;;;;;;;4.40;4.00;;;15.50;99.90;;;;;;4992736;28;20240;-75
2022/07/28 04:36:05;;;;;;;4.67;4.27;;;15.30;99.90;;;;;;4992857;28;20480;-75
2022/07/28 04:38:30;;;;;;;6.80;4.37;;;14.90;99.90;;;;;;4977127;28;21378;-75
2022/07/28 04:40:56;;;;;;;5.23;4.23;;;14.90;99.90;;;;;;4993519;28;20430;-75
2022/07/28 04:43:22;;;;;;;6.33;4.40;;;14.90;99.90;;;;;;5011720;28;20570;-73
2022/07/28 04:45:49;;;;;;;10.63;3.80;;;14.90;99.90;;;;;;5010940;28;20190;-72
2022/07/28 04:48:16;;;;;;;8.43;4.57;;;15.10;99.90;;;;;;5011090;28;20519;-72
2022/07/28 04:50:44;;;;;;;4.53;4.13;;;15.30;99.90;;;;;;5011429;28;21028;-75
2022/07/28 04:53:11;;;;;;;4.63;3.80;;;15.50;99.90;;;;;;5011173;28;20422;-73
2022/07/28 04:55:39;;;;;;;3.80;3.50;;;15.60;99.90;;;;;;5010795;28;20491;-72
2022/07/28 04:58:06;;;;;;;7.43;4.30;;;15.60;99.90;;;;;;5009493;28;21366;-73
2022/07/28 05:00:31;;;;;;;8.73;3.87;;;15.50;99.90;;;;;;4992208;28;20511;-73
2022/07/28 05:02:57;;;;;;;6.80;3.70;;;15.70;99.90;;;;;;5009857;28;20786;-73
2022/07/28 05:05:24;;;;;;;5.13;4.30;;;15.80;99.90;;;;;;4992200;28;20216;-73
2022/07/28 05:07:50;;;;;;;6.80;4.30;;;16.00;99.90;;;;;;4992187;28;20453;-73
2022/07/28 05:10:16;;;;;;;5.23;4.43;;;16.20;99.90;;;;;;5010006;28;20520;-75
2022/07/28 05:12:44;;;;;;;5.40;4.00;;;16.30;99.90;;;;;;5009863;28;20594;-74
2022/07/28 05:15:10;;;;;;;4.63;3.60;;;16.40;99.90;;;;;;5010260;28;20204;-75
2022/07/28 05:17:38;;;;;;;6.27;4.17;;;16.40;99.90;;;;;;4992364;28;20449;-75
2022/07/28 05:20:05;;;;;;;4.73;3.60;;;16.50;99.90;;;;;;5010510;28;20446;-75
2022/07/28 05:22:44;;;;;;;5.90;3.53;;;16.60;99.90;;;;;;5010168;28;20518;-73
2022/07/28 05:25:18;;;;;;;4.93;3.50;;;16.60;99.90;;;;;;5010169;28;20417;-72
2022/07/28 05:27:47;;;;;;;4.13;3.00;;;16.80;99.90;;;;;;5009442;28;20453;-73
2022/07/28 05:30:14;;;;;;;5.20;3.53;;;16.90;99.90;;;;;;5010149;28;20989;-72
2022/07/28 05:32:40;;;;;;;6.57;4.57;;;17.10;99.90;;;;;;5010158;28;20516;-73
2022/07/28 05:35:06;;;;;;;6.80;3.90;;;17.30;99.90;;;;;;5010859;28;20490;-73
2022/07/28 05:37:34;;;;;;;5.10;3.60;;;17.30;99.90;;;;;;5010601;28;20430;-73
2022/07/28 05:40:02;;;;;;;8.43;3.93;;;17.30;99.90;;;;;;4976588;28;20936;-72
2022/07/28 05:42:34;;;;;;;8.27;4.50;;;17.50;99.90;;;;;;4992698;28;20458;-73
2022/07/28 05:45:01;;;;;;;3.27;2.97;;;17.60;99.90;;;;;;5010167;28;20437;-72
2022/07/28 05:47:26;;;;;;;5.20;3.43;;;17.70;99.90;;;;;;5008679;28;20497;-72
2022/07/28 05:49:52;;;;;;;7.90;4.10;;;17.70;99.90;;;;;;4991120;28;20430;-73
2022/07/28 05:52:17;;;;;;;5.27;3.90;;;17.70;99.90;;;;;;5008900;28;20210;-75
2022/07/28 05:54:43;;;;;;;5.03;3.30;;;17.80;99.90;;;;;;4991065;28;20309;-74
2022/07/28 05:57:10;;;;;;;7.80;3.80;;;17.90;99.90;;;;;;4990586;28;20646;-73
2022/07/28 05:59:36;;;;;;;6.90;4.00;;;17.90;99.90;;;;;;4990653;28;20204;-73
2022/07/28 06:02:03;;;;;;;4.30;3.43;;;18.00;99.90;;;;;;5008492;28;21079;-73
2022/07/28 06:04:29;;;;;;;4.00;3.47;;;18.10;99.90;;;;;;4990157;28;20204;-73
2022/07/28 06:06:55;;;;;;;5.77;3.63;;;18.30;99.90;;;;;;4990495;28;20427;-73
2022/07/28 06:09:21;;;;;;;5.17;3.63;;;18.40;99.90;;;;;;5007249;28;20954;-73
2022/07/28 06:11:48;;;;;;;6.70;4.17;;;18.50;99.90;;;;;;5008022;28;20436;-73
2022/07/28 06:14:14;;;;;;;9.20;3.90;;;18.70;99.90;;;;;;4973987;28;20244;-73
2022/07/28 06:16:41;;;;;;;4.23;3.60;;;18.70;99.90;;;;;;5007698;28;20471;-73
2022/07/28 06:19:06;;;;;;;9.57;3.77;;;18.80;99.90;;;;;;4990203;28;20208;-73
2022/07/28 06:21:32;;;;;;;4.00;3.70;;;19.00;99.90;;;;;;4989855;28;20424;-75
2022/07/28 06:23:58;;;;;;;9.33;4.60;;;19.00;99.90;;;;;;5007660;28;20189;-73
2022/07/28 06:26:24;;;;;;;7.30;3.23;;;19.20;99.90;;;;;;4973446;28;20189;-73
2022/07/28 06:28:49;;;;;;;5.10;3.23;;;19.30;99.90;;;;;;5007598;28;20447;-73
2022/07/28 06:31:15;;;;;;;6.20;3.47;;;19.30;99.90;;;;;;5007482;28;20201;-73
2022/07/28 06:33:41;;;;;;;4.60;3.40;;;19.60;99.90;;;;;;5007316;28;20192;-73
2022/07/28 06:36:06;;;;;;;7.40;3.67;;;19.60;99.90;;;;;;4973253;28;20217;-75
2022/07/28 06:38:32;;;;;;;7.07;4.20;;;19.70;99.90;;;;;;5007093;28;20440;-73
2022/07/28 06:40:59;;;;;;;5.80;3.80;;;19.60;99.90;;;;;;5007310;28;20181;-73
2022/07/28 06:43:25;;;;;;;8.47;4.07;;;19.60;99.90;;;;;;4989416;28;20272;-75
2022/07/28 06:45:50;;;;;;;4.80;4.30;;;19.70;99.90;;;;;;4989675;28;20909;-75
2022/07/28 06:48:17;;;;;;;7.10;4.23;;;19.80;99.90;;;;;;5007267;28;20453;-75
2022/07/28 06:50:46;;;;;;;7.77;4.13;;;19.90;99.90;;;;;;5007286;28;20196;-73
2022/07/28 06:53:12;;;;;;;5.67;4.20;;;19.80;99.90;;;;;;4973435;28;20498;-73
2022/07/28 06:55:38;;;;;;;8.60;5.13;;;19.80;99.90;;;;;;4989458;28;20479;-73
2022/07/28 06:58:03;;;;;;;8.57;4.90;;;19.90;99.90;;;;;;5007056;28;20709;-74
2022/07/28 07:00:29;;;;;;;6.40;5.73;;;19.90;99.90;;;;;;5007230;28;20554;-73
2022/07/28 07:02:55;;;;;;;7.47;4.70;;;20.00;99.90;;;;;;5007130;28;20188;-73
2022/07/28 07:05:20;;;;;;;8.17;5.00;;;20.10;99.90;;;;;;5007218;28;20205;-74
2022/07/28 07:07:46;;;;;;;7.63;5.07;;;20.10;99.90;;;;;;5007272;28;20351;-73
2022/07/28 07:10:12;;;;;;;13.53;4.83;;;20.20;99.90;;;;;;5007526;28;20196;-73
2022/07/28 07:12:38;;;;;;;9.70;4.60;;;20.20;99.90;;;;;;5007472;28;20193;-73
2022/07/28 07:15:04;;;;;;;7.23;3.80;;;20.30;99.90;;;;;;5007419;28;20241;-74
2022/07/28 07:17:30;;;;;;;7.03;4.40;;;20.30;99.90;;;;;;5007734;28;20185;-73
2022/07/28 07:19:56;;;;;;;7.33;4.47;;;20.40;99.90;;;;;;5007740;28;20434;-74
2022/07/28 07:22:21;;;;;;;6.53;4.23;;;20.40;99.90;;;;;;5010982;28;20217;-74
2022/07/28 07:24:47;;;;;;;10.27;4.27;;;20.40;99.90;;;;;;5011296;28;20243;-75
2022/07/28 07:27:12;;;;;;;8.07;4.00;;;20.40;99.90;;;;;;5011259;28;20200;-75
2022/07/28 07:29:38;;;;;;;9.17;4.40;;;20.50;99.90;;;;;;5011042;28;20205;-74
2022/07/28 07:32:04;;;;;;;7.20;4.10;;;20.60;99.90;;;;;;4993337;28;20189;-75
2022/07/28 07:34:29;;;;;;;7.03;5.13;;;20.70;99.90;;;;;;5010994;28;20216;-75
2022/07/28 07:36:55;;;;;;;9.93;5.10;;;20.70;99.90;;;;;;5011034;28;20343;-74
2022/07/28 07:39:21;;;;;;;13.90;5.70;;;20.80;99.90;;;;;;4994117;28;20210;-74
2022/07/28 07:41:46;;;;;;;11.13;6.07;;;20.80;99.90;;;;;;5010750;28;20192;-74
2022/07/28 07:44:12;;;;;;;13.63;5.60;;;20.80;99.90;;;;;;5010670;28;20189;-74
2022/07/28 07:46:38;;;;;;;7.80;4.90;;;20.80;99.90;;;;;;4993195;28;20243;-74
2022/07/28 07:49:04;;;;;;;7.07;5.60;;;20.80;99.90;;;;;;4993091;28;20216;-74
2022/07/28 07:51:30;;;;;;;8.30;4.97;;;20.90;99.90;;;;;;4992912;28;20461;-74
2022/07/28 07:53:56;;;;;;;7.03;5.80;;;21.00;99.90;;;;;;4993229;28;20448;-74
2022/07/28 07:56:22;;;;;;;8.70;5.13;;;21.10;99.90;;;;;;5010743;28;21020;-74
2022/07/28 07:58:48;;;;;;;8.73;5.27;;;21.20;99.90;;;;;;5010329;28;20284;-74
2022/07/28 08:01:14;;;;;;;16.10;5.10;;;21.30;99.90;;;;;;5010645;28;20177;-74
2022/07/28 08:03:40;;;;;;;9.17;5.90;;;21.40;99.90;;;;;;4992875;28;20451;-74
2022/07/28 08:06:05;;;;;;;9.70;6.17;;;21.50;99.90;;;;;;4992538;28;20192;-74
2022/07/28 08:08:31;;;;;;;8.40;5.80;;;21.50;99.90;;;;;;4992776;28;20206;-74
2022/07/28 08:10:57;;;;;;;7.73;4.67;;;21.60;99.90;;;;;;4992588;28;20193;-74
2022/07/28 08:13:22;;;;;;;8.70;5.40;;;21.80;99.90;;;;;;4992617;28;20187;-74
2022/07/28 08:15:48;;;;;;;8.77;6.00;;;21.90;99.90;;;;;;5010229;28;20216;-74
2022/07/28 08:18:14;;;;;;;6.33;4.47;;;21.90;99.90;;;;;;4992389;28;20200;-74
2022/07/28 08:20:40;;;;;;;9.57;6.10;;;22.00;99.90;;;;;;5010166;28;20300;-74
2022/07/28 08:23:06;;;;;;;8.40;6.03;;;22.20;99.90;;;;;;4991823;28;20192;-74
2022/07/28 08:25:34;;;;;;;10.37;5.70;;;22.30;99.90;;;;;;5009836;28;20442;-75
2022/07/28 08:28:00;;;;;;;12.57;5.43;;;22.50;99.90;;;;;;4975985;28;20213;-74
2022/07/28 08:30:26;;;;;;;7.33;5.67;;;22.60;99.90;;;;;;5009945;28;20425;-73
2022/07/28 08:32:51;;;;;;;9.63;5.20;;;22.80;99.90;;;;;;5009127;28;20252;-74
2022/07/28 08:35:17;;;;;;;6.60;5.30;;;23.00;99.90;;;;;;5009604;28;20185;-75
2022/07/28 08:37:43;;;;;;;7.43;5.33;;;23.20;99.90;;;;;;5009386;28;20198;-74
2022/07/28 08:40:15;;;;;;;10.93;6.73;;;23.30;99.90;;;;;;5009303;28;20222;-75
2022/07/28 08:43:31;;;;;;;7.77;6.93;;;23.50;99.90;;;;;;5009210;28;20422;-74
2022/07/28 08:46:02;;;;;;;6.47;5.80;;;23.70;99.90;;;;;;5004223;28;20513;-74
2022/07/28 08:48:33;;;;;;;6.07;5.57;;;23.90;99.90;;;;;;5008941;28;20964;-75
2022/07/28 08:51:19;;;;;;;7.97;5.83;;;24.10;99.90;;;;;;4991013;28;21000;-74
2022/07/28 08:53:47;;;;;;;10.40;6.03;;;24.40;99.90;;;;;;4974854;28;20558;-75
2022/07/28 08:56:14;;;;;;;7.47;5.70;;;24.50;99.90;;;;;;5008738;28;20479;-74
2022/07/28 08:58:40;;;;;;;5.50;5.00;;;24.80;99.90;;;;;;5008704;28;20806;-74
2022/07/28 09:01:10;;;;;;;9.53;6.07;;;25.10;99.90;;;;;;5009267;28;20477;-75
2022/07/28 09:03:37;;;;;;;9.30;5.00;;;25.20;99.90;;;;;;4991892;28;20550;-75
2022/07/28 09:06:04;;;;;;;8.03;5.63;;;25.20;99.90;;;;;;5009127;28;20428;-74
2022/07/28 09:08:29;;;;;;;7.03;5.37;;;25.30;99.90;;;;;;4991382;28;20453;-74
2022/07/28 09:10:55;;;;;;;5.53;5.03;;;25.30;99.90;;;;;;5009011;28;20435;-74
2022/07/28 09:13:21;;;;;;;7.67;5.90;;;25.40;99.90;;;;;;5009179;28;20680;-74
2022/07/28 09:15:47;;;;;;;6.70;4.73;;;25.50;98.70;;;;;;4975985;28;20487;-75
2022/07/28 09:18:14;;;;;;;5.80;5.13;;;25.70;99.20;;;;;;5010191;28;20258;-75
2022/07/28 09:20:40;;;;;;;8.70;4.97;;;26.10;98.60;;;;;;5010136;28;20498;-75
2022/07/28 09:23:07;;;;;;;10.70;5.07;;;26.10;97.30;;;;;;5010590;28;20994;-75
2022/07/28 09:25:34;;;;;;;6.33;4.83;;;26.30;97.00;;;;;;5010872;28;20431;-75
2022/07/28 09:28:13;;;;;;;5.83;4.47;;;26.50;95.90;;;;;;5026399;28;20482;-73
2022/07/28 09:30:42;;;;;;;6.87;5.33;;;26.90;95.50;;;;;;5035108;28;20564;-73
2022/07/28 09:33:18;;;;;;;5.63;4.57;;;27.10;94.80;;;;;;5034635;28;20435;-74
2022/07/28 09:35:47;;;;;;;9.20;4.77;;;27.50;93.90;;;;;;5017520;28;20482;-73
2022/07/28 09:38:13;;;;;;;9.63;4.47;;;27.80;92.40;;;;;;5014368;28;20516;-75
2022/07/28 09:40:39;;;;;;;6.10;5.20;;;28.20;92.40;;;;;;4991926;28;20428;-75
2022/07/28 09:43:05;;;;;;;6.83;4.83;;;28.60;90.40;;;;;;5009687;28;20442;-75
2022/07/28 09:45:31;;;;;;;6.80;4.43;;;28.70;88.50;;;;;;5009895;28;20432;-74
2022/07/28 09:48:11;;;;;;;4.10;3.70;;;28.90;87.60;;;;;;5009785;28;20209;-74
2022/07/28 09:50:41;;;;;;;4.43;4.13;;;29.20;87.60;;;;;;5009577;28;20177;-75
2022/07/28 09:53:21;;;;;;;5.23;4.33;;;28.80;87.20;;;;;;5009452;28;20413;-75
2022/07/28 09:55:58;;;;;;;6.13;4.50;;;28.90;88.50;;;;;;5009666;28;21015;-75
2022/07/28 09:58:25;;;;;;;4.87;4.37;;;28.90;86.40;;;;;;4991206;28;20464;-75
2022/07/28 10:01:03;;;;;;;7.40;4.40;;;29.10;87.40;;;;;;5008801;28;20424;-75
2022/07/28 10:03:28;;;;;;;5.57;4.17;;;29.20;86.10;;;;;;5008344;28;20448;-75
2022/07/28 10:05:55;;;;;;;3.60;3.30;;;29.60;85.70;;;;;;5008559;28;20441;-76
2022/07/28 10:08:39;;;;;;;9.60;4.37;;;29.90;80.80;;;;;;5008348;28;20212;-75
2022/07/28 10:11:04;;;;;;;11.93;3.70;;;29.90;78.30;;;;;;5008175;28;20439;-75
2022/07/28 10:13:30;;;;;;;5.20;2.93;;;30.00;74.60;;;;;;5008126;28;20791;-74
2022/07/28 10:16:11;;;;;;;4.17;3.03;;;29.40;75.20;;;;;;5007980;28;20210;-74
2022/07/28 10:18:40;;;;;;;8.73;3.60;;;28.90;74.90;;;;;;4990584;28;20202;-75
2022/07/28 10:21:12;;;;;;;3.50;3.20;;;28.40;75.80;;;;;;5007695;28;20424;-75
2022/07/28 10:23:38;;;;;;;6.17;2.93;;;28.40;79.80;;;;;;5007708;28;20459;-75
2022/07/28 10:26:11;;;;;;;4.33;3.70;;;28.10;74.90;;;;;;5007912;28;20423;-74
2022/07/28 10:28:38;;;;;;;3.77;3.50;;;27.80;76.20;;;;;;5007405;28;20547;-74
2022/07/28 10:31:08;;;;;;;4.40;3.93;;;27.90;78.50;;;;;;4989752;28;20416;-74
2022/07/28 10:33:39;;;;;;;6.57;3.23;;;27.90;76.90;;;;;;5007262;28;20420;-74
2022/07/28 10:36:06;;;;;;;4.13;3.10;;;28.10;77.00;;;;;;5007492;28;20478;-75
2022/07/28 10:38:36;;;;;;;4.90;3.27;;;28.60;76.00;;;;;;5007372;28;20444;-74
2022/07/28 10:41:05;;;;;;;3.60;3.17;;;28.60;74.90;;;;;;5007370;28;20511;-74
2022/07/28 10:43:31;;;;;;;5.13;3.53;;;28.40;75.40;;;;;;4989810;28;20455;-74
2022/07/28 10:46:02;;;;;;;3.60;3.30;;;28.30;74.80;;;;;;5007399;28;20455;-74
2022/07/28 10:48:28;;;;;;;3.67;3.37;;;28.60;74.00;;;;;;5007184;28;20851;-75
2022/07/28 10:50:54;;;;;;;7.07;3.27;;;28.70;73.60;;;;;;4989539;28;20506;-75
2022/07/28 10:53:47;;;;;;;4.87;3.07;;;28.90;72.80;;;;;;4989263;28;20197;-75
2022/07/28 10:56:24;;;;;;;6.03;3.13;;;28.90;70.90;;;;;;5008843;28;20475;-75
2022/07/28 10:58:56;;;;;;;5.03;3.30;;;28.70;69.70;;;;;;4994119;28;20562;-74
2022/07/28 11:01:40;;;;;;;4.30;3.00;;;28.20;70.00;;;;;;5011253;28;20978;-75
2022/07/28 11:04:06;;;;;;;4.63;3.30;;;28.30;70.40;;;;;;5010958;28;20439;-74
2022/07/28 11:06:38;;;;;;;5.23;3.43;;;28.40;72.10;;;;;;5011027;28;21108;-74
2022/07/28 11:09:16;;;;;;;4.73;3.10;;;28.80;71.20;;;;;;4992970;28;20455;-74
2022/07/28 11:11:46;;;;;;;4.77;3.20;;;29.10;70.60;;;;;;5011075;28;20511;-75
2022/07/28 11:14:28;;;;;;;3.13;2.80;;;29.00;70.20;;;;;;4993221;28;20423;-74
2022/07/28 11:17:02;;;;;;;6.23;3.17;;;29.30;68.30;;;;;;5010694;28;20581;-75
2022/07/28 11:19:48;;;;;;;4.27;3.63;;;29.80;67.60;;;;;;4992995;28;20454;-74
2022/07/28 11:22:26;;;;;;;4.90;3.03;;;30.20;66.40;;;;;;4993018;28;20883;-74
2022/07/28 11:24:59;;;;;;;3.50;3.20;;;30.20;66.40;;;;;;5010937;28;20800;-75
2022/07/28 11:27:40;;;;;;;3.23;2.93;;;30.40;65.80;;;;;;4993453;28;20803;-74
2022/07/28 11:30:31;;;;;;;7.13;2.70;;;30.50;64.60;;;;;;5011922;28;20921;-75
2022/07/28 11:32:58;;;;;;;5.40;3.33;;;30.60;64.50;;;;;;5011221;28;20940;-74
2022/07/28 11:35:28;;;;;;;4.70;3.40;;;29.90;64.70;;;;;;5011208;28;20428;-73
2022/07/28 11:38:00;;;;;;;3.20;2.47;;;28.80;64.60;;;;;;4993572;28;20461;-74
2022/07/28 11:40:32;;;;;;;3.97;3.03;;;28.70;68.20;;;;;;4993214;28;20432;-74
2022/07/28 11:43:20;;;;;;;7.17;2.90;;;29.00;69.10;;;;;;4992672;28;20443;-74
2022/07/28 11:46:09;;;;;;;10.47;3.67;;;29.50;65.50;;;;;;5010970;28;20531;-74
2022/07/28 11:48:38;;;;;;;5.00;3.87;;;29.50;64.90;;;;;;5002683;28;20572;-74
2022/07/28 11:51:04;;;;;;;4.77;3.23;;;29.60;65.80;;;;;;5011037;28;20923;-74
2022/07/28 11:53:47;;;;;;;7.53;3.00;;;30.00;68.70;;;;;;4992860;28;20431;-74
2022/07/28 11:56:15;;;;;;;4.40;3.80;;;30.60;65.40;;;;;;5010690;28;20301;-74
2022/07/28 11:58:42;;;;;;;11.40;2.83;;;30.20;62.90;;;;;;5010814;28;20467;-75
2022/07/28 12:01:17;;;;;;;3.60;3.30;;;30.00;63.40;;;;;;5010747;28;20426;-74
2022/07/28 12:03:45;;;;;;;3.10;2.87;;;30.00;63.90;;;;;;5010832;28;20493;-74
2022/07/28 12:06:12;;;;;;;2.97;2.60;;;29.70;61.90;;;;;;5010878;28;20432;-74
2022/07/28 12:08:52;;;;;;;4.23;2.80;;;29.70;63.60;;;;;;5009303;28;20439;-74
2022/07/28 12:11:19;;;;;;;4.27;3.53;;;29.90;62.30;;;;;;5010811;28;20501;-74
2022/07/28 12:13:46;;;;;;;6.30;2.97;;;29.90;61.50;;;;;;5010737;28;20963;-75
2022/07/28 12:16:12;;;;;;;8.33;3.43;;;30.50;61.80;;;;;;5010615;28;20515;-75
2022/07/28 12:18:38;;;;;;;6.83;3.27;;;30.90;60.40;;;;;;5010398;28;20487;-74
2022/07/28 12:21:03;;;;;;;5.27;3.23;;;31.10;60.20;;;;;;5010293;28;20930;-75
2022/07/28 12:23:32;;;;;;;5.63;2.90;;;31.00;59.50;;;;;;5010383;28;20193;-75
2022/07/28 12:26:00;;;;;;;4.73;4.03;;;30.70;60.20;;;;;;5010323;28;20174;-74
2022/07/28 12:28:28;;;;;;;3.30;3.00;;;30.50;60.50;;;;;;5010069;28;20444;-74
2022/07/28 12:31:08;;;;;;;4.13;3.73;;;30.30;62.60;;;;;;5010192;28;20987;-74
2022/07/28 12:33:33;;;;;;;7.70;3.37;;;30.20;61.40;;;;;;4977923;28;20511;-74
2022/07/28 12:35:59;;;;;;;5.50;3.63;;;30.00;61.30;;;;;;5009903;28;21100;-74
2022/07/28 12:38:26;;;;;;;7.03;3.80;;;30.00;61.70;;;;;;5009764;28;20200;-74
2022/07/28 12:40:52;;;;;;;6.10;4.00;;;29.90;62.20;;;;;;5009696;28;20181;-74
2022/07/28 12:43:28;;;;;;;3.67;3.37;;;29.70;62.30;;;;;;5009549;28;20427;-74
2022/07/28 12:45:54;;;;;;;7.13;3.50;;;29.40;62.60;;;;;;5009593;28;21123;-74
2022/07/28 12:48:20;;;;;;;4.20;3.80;;;29.10;63.30;;;;;;5009420;28;20448;-74
2022/07/28 12:50:47;;;;;;;4.20;3.80;;;29.10;64.60;;;;;;5009838;28;20918;-74
2022/07/28 12:53:14;;;;;;;5.97;4.23;;;29.00;66.70;;;;;;5009773;28;20436;-75
2022/07/28 12:55:44;;;;;;;3.43;3.13;;;29.10;65.50;;;;;;5009809;28;20480;-74